Pagrindinis puslapis
METAR-TAF:

METAR-TAF

Oro uostai :

Heidrun, Norvegija

platuma: 65-19-30N, ilguma: 007-19-36E, Aukštis: 0 m

Dabartinis oras

Ataskaita buvo paskelbta 34 minutes, ne 06:50 UTC
Vėjas 25 kt iš Pietryčių
Temperatūra 6°C
Drėgmė 65%
Slėgis 982 hPa
Matomumas 10 km arba daugiau
Su prošvaistėmis ne aukštis 2500 ft

METAR: ENHE 150650Z 13025KT 9999 BKN025 06/00 Q0982 W///S5

Laikas: 08:24 (07:24 UTC)

Prognozė

Ataskaita buvo paskelbta 2 valandos ir 24 minutes, ne 05:00 UTC
Prognozė galioja nuo 15 metu 06 UTC su 15 metu 15 UTC
Vėjas 25 kt iš Rytų/Pietryčių
Matomumas 10 km arba daugiau
Išsisklaidę debesys ne aukštis 2500 ft

TAF: ENHE 150500Z 1506/1515 12025KT 9999 SCT025

Orai ataskaitas ir orų prognozės (METAR, TAF).

turimą stotys yra geltonos ir raudonos taškus žemėlapyje.

Perkelti pele per norėdami pamatyti stoties vardą.

Tada spustelėkite, norėdami matyti oro stebėjimo ir prognozės.

Norėdami pakeisti žemėlapį: spustelėkite ant žalios mygtukų su juodo kryžiaus žemyn,; žalią mygtuką su brūkšneliu, jei norite nutolinti; arba žalių rodyklių gretimoms žemėlapius.


METAR-TAF: